createdAt,value
2018-07-31T00:00:13.952Z,0.00
2018-07-31T00:02:27.286Z,0.00
2018-07-31T00:03:39.377Z,0.00
2018-07-31T00:04:51.367Z,0.00
2018-07-31T00:06:20.457Z,0.00
2018-07-31T00:07:30.614Z,0.00
2018-07-31T00:07:59.482Z,0.00
2018-07-31T00:09:06.350Z,0.00
2018-07-31T00:10:11.387Z,0.00
2018-07-31T00:11:24.800Z,0.00
2018-07-31T00:14:57.700Z,0.00
2018-07-31T00:15:27.088Z,0.00
2018-07-31T00:16:54.952Z,0.00
2018-07-31T00:17:55.985Z,0.00
2018-07-31T00:19:17.298Z,0.00
2018-07-31T00:20:08.905Z,0.00
2018-07-31T00:21:14.547Z,0.00
2018-07-31T00:22:04.726Z,0.00
2018-07-31T00:23:19.839Z,0.00
2018-07-31T00:24:14.880Z,0.00
2018-07-31T00:25:33.636Z,0.00
2018-07-31T00:26:41.932Z,0.00
2018-07-31T00:28:00.886Z,0.00
2018-07-31T00:28:45.022Z,0.00
2018-07-31T00:31:55.300Z,0.00
2018-07-31T00:33:05.434Z,0.00
2018-07-31T00:34:00.836Z,0.00
2018-07-31T00:35:16.613Z,0.00
2018-07-31T00:36:36.798Z,0.00
2018-07-31T00:37:30.661Z,0.00
2018-07-31T00:38:38.555Z,0.00
2018-07-31T00:39:37.848Z,0.00
2018-07-31T00:41:59.783Z,0.00
2018-07-31T00:43:01.680Z,0.00
2018-07-31T00:44:09.733Z,0.00
2018-07-31T00:46:13.338Z,0.00
2018-07-31T00:47:31.268Z,0.00
2018-07-31T00:48:15.507Z,0.00
2018-07-31T00:49:30.226Z,0.00
2018-07-31T00:50:34.571Z,0.00
2018-07-31T00:51:44.305Z,0.00
2018-07-31T00:52:41.758Z,0.00
2018-07-31T00:53:54.569Z,0.00
2018-07-31T00:55:04.502Z,0.00
2018-07-31T00:56:08.695Z,0.00
2018-07-31T00:57:03.088Z,0.00
2018-07-31T00:58:22.141Z,0.00
2018-07-31T00:59:15.185Z,0.00
2018-07-31T01:00:30.861Z,0.00
2018-07-31T01:02:35.585Z,0.00
2018-07-31T01:03:43.175Z,0.00
2018-07-31T01:04:48.613Z,0.00
2018-07-31T01:06:52.727Z,0.00
2018-07-31T01:08:05.022Z,0.00
2018-07-31T01:09:15.988Z,0.00
2018-07-31T01:10:06.066Z,0.00
2018-07-31T01:11:14.736Z,0.00
2018-07-31T01:12:36.802Z,0.00
2018-07-31T01:13:37.220Z,0.00
2018-07-31T01:15:39.386Z,0.00
2018-07-31T01:16:45.333Z,0.00
2018-07-31T01:21:09.945Z,0.00
2018-07-31T01:22:08.009Z,0.00
2018-07-31T01:23:28.705Z,0.00
2018-07-31T01:24:24.207Z,0.00
2018-07-31T01:25:33.233Z,0.00
2018-07-31T01:26:32.317Z,0.00
2018-07-31T01:27:38.372Z,0.00
2018-07-31T01:28:37.246Z,0.00
2018-07-31T01:29:59.477Z,0.00
2018-07-31T01:31:08.395Z,0.00
2018-07-31T01:32:01.751Z,0.00
2018-07-31T01:33:08.717Z,0.00
2018-07-31T01:34:18.864Z,0.00
2018-07-31T01:35:14.779Z,0.00
2018-07-31T01:36:25.642Z,0.00
2018-07-31T01:37:31.079Z,0.00
2018-07-31T01:38:25.969Z,0.00
2018-07-31T01:39:34.273Z,0.00
2018-07-31T01:40:37.046Z,0.00
2018-07-31T01:41:52.931Z,0.00
2018-07-31T01:43:15.261Z,0.00
2018-07-31T01:44:10.451Z,0.00
2018-07-31T01:45:09.434Z,0.00
2018-07-31T01:46:13.640Z,0.00
2018-07-31T01:47:15.595Z,0.00
2018-07-31T01:48:16.837Z,0.00
2018-07-31T01:49:31.895Z,0.00
2018-07-31T01:50:31.808Z,0.00
2018-07-31T01:51:44.920Z,0.00
2018-07-31T01:53:05.104Z,0.00
2018-07-31T01:55:00.205Z,0.00
2018-07-31T01:56:16.289Z,0.00
2018-07-31T01:57:11.280Z,0.00
2018-07-31T01:58:19.686Z,0.00
2018-07-31T01:59:31.211Z,0.00
2018-07-31T02:01:39.582Z,0.00
2018-07-31T02:02:57.715Z,0.00
2018-07-31T02:03:38.676Z,0.00
2018-07-31T02:04:56.707Z,0.00
2018-07-31T02:05:56.820Z,0.00
2018-07-31T02:07:09.937Z,0.00
2018-07-31T02:08:08.820Z,0.00
2018-07-31T02:10:14.059Z,0.00
2018-07-31T02:11:29.024Z,0.00
2018-07-31T02:12:26.160Z,0.00
2018-07-31T02:13:37.233Z,0.00
2018-07-31T02:14:48.401Z,0.00
2018-07-31T02:15:37.461Z,0.00
2018-07-31T02:17:42.495Z,0.00
2018-07-31T02:19:22.371Z,0.00
2018-07-31T02:21:26.852Z,0.00
2018-07-31T02:22:24.138Z,0.00
2018-07-31T02:23:13.968Z,0.00
2018-07-31T02:24:47.974Z,0.00
2018-07-31T02:25:26.197Z,0.00
2018-07-31T02:26:46.147Z,0.00
2018-07-31T02:27:34.176Z,0.00
2018-07-31T02:29:16.273Z,0.00
2018-07-31T02:29:52.422Z,0.00
2018-07-31T02:30:52.434Z,0.00
2018-07-31T02:32:15.483Z,0.00
2018-07-31T02:33:12.521Z,0.00
2018-07-31T02:34:26.765Z,0.00
2018-07-31T02:37:14.805Z,0.00
2018-07-31T02:38:03.141Z,0.00
2018-07-31T02:41:25.080Z,0.00
2018-07-31T02:42:11.572Z,0.00
2018-07-31T02:43:03.729Z,0.00
2018-07-31T02:45:03.515Z,0.00
2018-07-31T02:46:37.819Z,0.00
2018-07-31T02:47:50.013Z,0.00
2018-07-31T02:48:30.768Z,0.00
2018-07-31T02:49:23.302Z,0.00
2018-07-31T02:50:41.024Z,0.00
2018-07-31T02:53:27.943Z,0.00
2018-07-31T02:53:45.146Z,0.00
2018-07-31T02:55:19.051Z,0.00
2018-07-31T02:57:03.911Z,0.00
2018-07-31T02:58:12.429Z,0.00
2018-07-31T02:59:12.119Z,0.00
2018-07-31T03:00:03.014Z,0.00
2018-07-31T03:00:48.276Z,0.00
2018-07-31T03:01:46.443Z,0.00
2018-07-31T03:03:23.009Z,0.00
2018-07-31T03:04:43.704Z,0.00
2018-07-31T03:05:03.683Z,0.00
2018-07-31T03:06:43.416Z,0.00
2018-07-31T03:07:35.690Z,0.00
2018-07-31T03:08:56.289Z,0.00
2018-07-31T03:12:07.310Z,0.00
2018-07-31T03:13:10.306Z,0.00
2018-07-31T03:14:03.235Z,0.00
2018-07-31T03:15:51.177Z,0.00
2018-07-31T03:17:05.140Z,0.00
2018-07-31T03:18:44.230Z,0.00
2018-07-31T03:20:29.399Z,0.00
2018-07-31T03:21:22.963Z,0.00
2018-07-31T03:22:12.456Z,0.00
2018-07-31T03:24:21.142Z,0.00
2018-07-31T03:25:53.607Z,0.00
2018-07-31T03:30:05.329Z,0.00
2018-07-31T03:31:55.294Z,0.00
2018-07-31T03:33:04.013Z,0.00
2018-07-31T03:35:22.868Z,0.00
2018-07-31T03:36:22.877Z,0.00
2018-07-31T03:37:22.169Z,0.00
2018-07-31T03:38:46.547Z,0.00
2018-07-31T03:39:31.297Z,0.00
2018-07-31T03:42:06.335Z,0.00
2018-07-31T03:43:12.488Z,0.00
2018-07-31T03:43:59.184Z,0.00
2018-07-31T03:44:59.089Z,0.00
2018-07-31T03:46:00.020Z,0.00
2018-07-31T03:47:05.965Z,0.00
2018-07-31T03:48:29.322Z,0.00
2018-07-31T03:51:32.833Z,0.00
2018-07-31T03:52:59.981Z,0.00
2018-07-31T03:53:57.840Z,0.00
2018-07-31T03:55:16.587Z,0.00
2018-07-31T03:57:04.421Z,0.00
2018-07-31T03:58:06.783Z,0.00
2018-07-31T03:59:18.057Z,0.00
2018-07-31T04:00:32.303Z,0.00
2018-07-31T04:02:32.935Z,0.00
2018-07-31T04:04:45.392Z,0.00
2018-07-31T04:05:56.108Z,0.00
2018-07-31T04:07:08.196Z,0.00
2018-07-31T04:07:58.681Z,0.00
2018-07-31T04:09:24.497Z,0.00
2018-07-31T04:10:30.340Z,0.00
2018-07-31T04:11:17.857Z,0.00
2018-07-31T04:12:20.230Z,0.00
2018-07-31T04:13:34.772Z,0.00
2018-07-31T04:15:42.572Z,0.00
2018-07-31T04:16:57.846Z,0.00
2018-07-31T04:17:38.392Z,0.00
2018-07-31T04:19:09.254Z,0.00
2018-07-31T04:19:54.591Z,0.00
2018-07-31T04:21:26.549Z,0.00
2018-07-31T04:22:14.984Z,0.00
2018-07-31T04:23:15.094Z,0.00
2018-07-31T04:24:20.430Z,0.00
2018-07-31T04:26:47.684Z,0.00
2018-07-31T04:27:44.622Z,0.00
2018-07-31T04:29:44.951Z,0.00
2018-07-31T04:32:09.438Z,0.00
2018-07-31T04:32:57.470Z,0.00
2018-07-31T04:36:33.745Z,5.63
2018-07-31T04:39:38.377Z,5.63
2018-07-31T04:41:01.020Z,5.63
2018-07-31T04:41:56.727Z,0.00
2018-07-31T04:42:59.356Z,5.63
2018-07-31T04:44:08.520Z,5.63
2018-07-31T04:45:15.189Z,5.63
2018-07-31T04:47:12.638Z,5.63
2018-07-31T04:48:41.320Z,5.63
2018-07-31T04:49:31.294Z,5.63
2018-07-31T04:50:33.248Z,5.63
2018-07-31T04:51:30.799Z,5.63
2018-07-31T04:53:53.146Z,5.63
2018-07-31T04:57:08.433Z,5.63
2018-07-31T04:58:27.384Z,5.63
2018-07-31T04:59:20.013Z,11.25
2018-07-31T05:00:47.568Z,11.25
2018-07-31T05:01:20.133Z,11.25
2018-07-31T05:03:03.154Z,11.25
2018-07-31T05:03:46.161Z,11.25
2018-07-31T05:06:00.007Z,11.25
2018-07-31T05:07:13.019Z,11.25
2018-07-31T05:08:06.882Z,11.25
2018-07-31T05:09:06.380Z,11.25
2018-07-31T05:12:50.871Z,11.25
2018-07-31T05:13:24.240Z,11.25
2018-07-31T05:17:14.033Z,11.25
2018-07-31T05:17:56.322Z,5.63
2018-07-31T05:19:00.428Z,11.25
2018-07-31T05:20:26.041Z,5.63
2018-07-31T05:21:33.010Z,5.63
2018-07-31T05:22:14.692Z,5.63
2018-07-31T05:23:42.858Z,5.63
2018-07-31T05:24:45.122Z,5.63
2018-07-31T05:26:04.385Z,5.63
2018-07-31T05:26:37.667Z,5.63
2018-07-31T05:27:59.383Z,5.63
2018-07-31T05:29:21.714Z,5.63
2018-07-31T05:31:51.021Z,11.25
2018-07-31T05:34:04.657Z,11.25
2018-07-31T05:36:39.487Z,11.25
2018-07-31T05:38:17.488Z,11.25
2018-07-31T05:40:11.978Z,11.25
2018-07-31T05:40:56.829Z,5.63
2018-07-31T05:42:20.902Z,5.63
2018-07-31T05:42:58.901Z,5.63
2018-07-31T05:44:08.834Z,5.63
2018-07-31T05:45:49.706Z,5.63
2018-07-31T05:47:05.383Z,5.63
2018-07-31T05:48:51.984Z,5.63
2018-07-31T05:50:12.373Z,11.25
2018-07-31T05:50:58.148Z,11.25
2018-07-31T05:52:33.384Z,11.25
2018-07-31T05:53:41.377Z,11.25
2018-07-31T05:54:12.510Z,11.25
2018-07-31T05:55:22.554Z,11.25
2018-07-31T05:57:38.850Z,5.63
2018-07-31T05:58:44.697Z,5.63
2018-07-31T05:59:44.913Z,11.25
2018-07-31T06:01:04.895Z,11.25
2018-07-31T06:01:53.123Z,11.25
2018-07-31T06:05:19.674Z,11.25
2018-07-31T06:06:00.328Z,11.25
2018-07-31T06:07:28.398Z,11.25
2018-07-31T06:08:10.484Z,11.25
2018-07-31T06:09:23.293Z,11.25
2018-07-31T06:10:33.745Z,11.25
2018-07-31T06:11:35.804Z,11.25
2018-07-31T06:12:49.413Z,11.25
2018-07-31T06:14:04.801Z,11.25
2018-07-31T06:15:54.888Z,11.25
2018-07-31T06:17:02.988Z,11.25
2018-07-31T06:19:17.577Z,11.25
2018-07-31T06:20:16.325Z,11.25
2018-07-31T06:21:34.459Z,11.25
2018-07-31T06:22:24.433Z,11.25
2018-07-31T06:23:46.560Z,16.88
2018-07-31T06:24:38.683Z,16.88
2018-07-31T06:25:48.835Z,16.88
2018-07-31T06:26:43.924Z,16.88
2018-07-31T06:27:56.755Z,22.50
2018-07-31T06:28:58.890Z,22.50
2018-07-31T06:30:11.904Z,22.50
2018-07-31T06:31:12.219Z,22.50
2018-07-31T06:32:19.189Z,22.50
2018-07-31T06:34:25.361Z,22.50
2018-07-31T06:35:38.161Z,22.50
2018-07-31T06:36:39.604Z,28.13
2018-07-31T06:37:46.574Z,28.13
2018-07-31T06:38:57.642Z,28.13
2018-07-31T06:40:57.248Z,28.13
2018-07-31T06:42:08.213Z,33.75
2018-07-31T06:43:09.759Z,33.75
2018-07-31T06:44:11.105Z,33.75
2018-07-31T06:45:28.927Z,28.13
2018-07-31T06:46:34.978Z,28.13
2018-07-31T06:47:32.938Z,28.13
2018-07-31T06:48:37.927Z,28.13
2018-07-31T06:49:54.157Z,28.13
2018-07-31T06:51:08.297Z,28.13
2018-07-31T06:52:02.569Z,33.75
2018-07-31T06:53:33.708Z,33.75
2018-07-31T06:54:20.098Z,28.13
2018-07-31T06:55:13.041Z,28.13
2018-07-31T06:56:35.299Z,28.13
2018-07-31T06:57:41.830Z,28.13
2018-07-31T06:58:25.762Z,28.13
2018-07-31T06:59:55.878Z,28.13
2018-07-31T07:01:05.305Z,28.13
2018-07-31T07:01:40.533Z,28.13
2018-07-31T07:03:07.679Z,28.13
2018-07-31T07:03:56.320Z,28.13
2018-07-31T07:06:18.937Z,22.50
2018-07-31T07:07:15.089Z,22.50
2018-07-31T07:09:30.874Z,22.50
2018-07-31T07:10:27.707Z,22.50
2018-07-31T07:11:34.164Z,22.50
2018-07-31T07:12:39.193Z,22.50
2018-07-31T07:14:45.561Z,22.50
2018-07-31T07:16:04.824Z,22.50
2018-07-31T07:16:53.564Z,22.50
2018-07-31T07:18:08.945Z,22.50
2018-07-31T07:19:08.330Z,22.50
2018-07-31T07:20:20.730Z,22.50
2018-07-31T07:21:25.145Z,22.50
2018-07-31T07:22:36.043Z,22.50
2018-07-31T07:23:32.225Z,22.50
2018-07-31T07:24:35.306Z,22.50
2018-07-31T07:25:37.875Z,22.50
2018-07-31T07:26:52.840Z,22.50
2018-07-31T07:28:00.387Z,22.50
2018-07-31T07:29:01.046Z,22.50
2018-07-31T07:30:14.163Z,22.50
2018-07-31T07:31:14.180Z,22.50
2018-07-31T07:32:22.375Z,22.50
2018-07-31T07:33:15.930Z,28.13
2018-07-31T07:34:31.198Z,28.13
2018-07-31T07:35:32.436Z,33.75
2018-07-31T07:36:41.979Z,33.75
2018-07-31T07:39:01.447Z,33.75
2018-07-31T07:40:11.930Z,33.75
2018-07-31T07:40:56.954Z,33.75
2018-07-31T07:42:15.497Z,28.13
2018-07-31T07:43:40.080Z,33.75
2018-07-31T07:45:44.089Z,39.38
2018-07-31T07:46:28.020Z,39.38
2018-07-31T07:50:09.832Z,33.75
2018-07-31T07:50:54.480Z,28.13
2018-07-31T07:52:14.966Z,33.75
2018-07-31T07:53:09.240Z,28.13
2018-07-31T07:54:05.178Z,39.38
2018-07-31T07:55:07.315Z,33.75
2018-07-31T07:57:34.773Z,33.75
2018-07-31T07:58:25.261Z,33.75
2018-07-31T08:00:57.842Z,28.13
2018-07-31T08:02:04.507Z,33.75
2018-07-31T08:02:46.697Z,33.75
2018-07-31T08:03:55.660Z,28.13
2018-07-31T08:05:17.740Z,33.75
2018-07-31T08:06:23.487Z,33.75
2018-07-31T08:07:23.087Z,33.75
2018-07-31T08:08:33.132Z,28.13
2018-07-31T08:10:38.371Z,28.13
2018-07-31T08:11:54.255Z,33.75
2018-07-31T08:12:46.068Z,33.75
2018-07-31T08:13:44.950Z,33.75
2018-07-31T08:14:57.473Z,33.75
2018-07-31T08:16:02.371Z,28.13
2018-07-31T08:17:12.518Z,28.13
2018-07-31T08:18:11.297Z,33.75
2018-07-31T08:19:18.276Z,33.75
2018-07-31T08:20:24.549Z,33.75
2018-07-31T08:22:36.491Z,28.13
2018-07-31T08:24:51.798Z,33.75
2018-07-31T08:26:03.276Z,33.75
2018-07-31T08:26:57.650Z,33.75
2018-07-31T08:28:00.527Z,16.88
2018-07-31T08:29:06.474Z,11.25
2018-07-31T08:30:16.636Z,22.50
2018-07-31T08:31:15.603Z,22.50
2018-07-31T08:32:26.574Z,28.13
2018-07-31T08:33:31.443Z,28.13
2018-07-31T08:34:32.893Z,28.13
2018-07-31T08:35:42.979Z,33.75
2018-07-31T08:36:52.412Z,39.38
2018-07-31T08:37:55.389Z,28.13
2018-07-31T08:40:06.365Z,33.75
2018-07-31T08:42:16.626Z,45.00
2018-07-31T08:43:26.567Z,45.00
2018-07-31T08:44:19.815Z,45.00
2018-07-31T08:45:30.886Z,45.00
2018-07-31T08:46:33.144Z,45.00
2018-07-31T08:48:42.995Z,45.00
2018-07-31T08:51:00.118Z,45.00
2018-07-31T08:52:00.226Z,50.63
2018-07-31T08:53:08.221Z,45.00
2018-07-31T08:54:17.449Z,45.00
2018-07-31T08:56:34.259Z,39.38
2018-07-31T08:57:39.285Z,39.38
2018-07-31T08:58:49.843Z,39.38
2018-07-31T08:59:47.605Z,39.38
2018-07-31T09:00:50.577Z,39.38
2018-07-31T09:03:04.831Z,39.38
2018-07-31T09:05:08.433Z,28.13
2018-07-31T09:07:21.045Z,22.50
2018-07-31T09:08:27.280Z,22.50
2018-07-31T09:11:54.873Z,28.13
2018-07-31T09:12:54.065Z,28.13
2018-07-31T09:14:02.470Z,28.13
2018-07-31T09:15:04.321Z,28.13
2018-07-31T09:17:18.680Z,39.38
2018-07-31T09:19:26.273Z,45.00
2018-07-31T09:20:30.479Z,39.38
2018-07-31T09:22:38.997Z,39.38
2018-07-31T09:23:46.177Z,39.38
2018-07-31T09:24:52.655Z,50.63
2018-07-31T09:25:56.230Z,39.38
2018-07-31T09:27:05.765Z,28.13
2018-07-31T09:28:14.986Z,39.38
2018-07-31T09:29:08.562Z,33.75
2018-07-31T09:30:13.465Z,28.13
2018-07-31T09:31:20.748Z,22.50
2018-07-31T09:33:37.764Z,28.13
2018-07-31T09:34:42.483Z,28.13
2018-07-31T09:35:48.943Z,28.13
2018-07-31T09:37:01.035Z,28.13
2018-07-31T09:37:59.819Z,28.13
2018-07-31T09:38:57.980Z,28.13
2018-07-31T09:40:22.460Z,28.13
2018-07-31T09:41:14.685Z,33.75
2018-07-31T09:42:11.725Z,39.38
2018-07-31T09:43:24.122Z,50.63
2018-07-31T09:44:40.413Z,45.00
2018-07-31T09:46:38.086Z,39.38
2018-07-31T09:47:50.991Z,33.75
2018-07-31T09:48:53.247Z,33.75
2018-07-31T09:49:55.304Z,33.75
2018-07-31T09:51:18.662Z,33.75
2018-07-31T09:52:11.296Z,33.75
2018-07-31T09:53:16.322Z,39.38
2018-07-31T09:54:26.173Z,45.00
2018-07-31T09:55:23.922Z,45.00
2018-07-31T09:56:31.915Z,50.63
2018-07-31T09:57:36.942Z,67.50
2018-07-31T09:58:47.191Z,67.50
2018-07-31T09:59:56.932Z,56.25
2018-07-31T10:00:58.476Z,56.25
2018-07-31T10:03:03.104Z,50.63
2018-07-31T10:04:04.133Z,56.25
2018-07-31T10:05:11.375Z,50.63
2018-07-31T10:06:32.208Z,73.13
2018-07-31T10:07:31.499Z,56.25
2018-07-31T10:09:40.940Z,56.25
2018-07-31T10:10:43.407Z,61.88
2018-07-31T10:13:53.069Z,50.63
2018-07-31T10:15:03.412Z,39.38
2018-07-31T10:16:15.406Z,50.63
2018-07-31T10:17:21.967Z,39.38
2018-07-31T10:18:34.263Z,45.00
2018-07-31T10:19:24.852Z,50.63
2018-07-31T10:20:33.564Z,50.63
2018-07-31T10:21:39.105Z,61.88
2018-07-31T10:22:39.828Z,73.13
2018-07-31T10:23:45.673Z,73.13
2018-07-31T10:24:58.585Z,78.75
2018-07-31T10:26:07.400Z,67.50
2018-07-31T10:27:03.416Z,73.13
2018-07-31T10:28:16.635Z,73.13
2018-07-31T10:31:31.099Z,50.63
2018-07-31T10:32:39.818Z,50.63
2018-07-31T10:33:50.980Z,50.63
2018-07-31T10:34:43.411Z,50.63
2018-07-31T10:36:07.793Z,50.63
2018-07-31T10:37:59.311Z,50.63
2018-07-31T10:41:17.471Z,50.63
2018-07-31T10:44:29.163Z,39.38
2018-07-31T10:45:50.062Z,39.38
2018-07-31T10:46:37.678Z,61.88
2018-07-31T10:48:01.139Z,61.88
2018-07-31T10:48:52.754Z,61.88
2018-07-31T10:50:07.708Z,39.38
2018-07-31T10:51:12.040Z,33.75
2018-07-31T10:52:14.276Z,61.88
2018-07-31T10:53:27.499Z,39.38
2018-07-31T10:54:30.686Z,67.50
2018-07-31T10:55:33.455Z,39.38
2018-07-31T10:56:41.960Z,45.00
2018-07-31T10:57:42.901Z,61.88
2018-07-31T10:58:48.125Z,67.50
2018-07-31T11:00:50.401Z,67.50
2018-07-31T11:02:11.091Z,67.50
2018-07-31T11:05:27.402Z,73.13
2018-07-31T11:06:34.024Z,73.13
2018-07-31T11:08:35.314Z,67.50
2018-07-31T11:09:36.553Z,67.50
2018-07-31T11:11:55.207Z,33.75
2018-07-31T11:12:56.596Z,45.00
2018-07-31T11:14:09.460Z,73.13
2018-07-31T11:15:10.491Z,78.75
2018-07-31T11:18:29.058Z,84.38
2018-07-31T11:19:37.559Z,50.63
2018-07-31T11:20:44.326Z,90.00
2018-07-31T11:21:45.359Z,78.75
2018-07-31T11:23:57.969Z,73.13
2018-07-31T11:24:57.876Z,73.13
2018-07-31T11:26:04.133Z,67.50
2018-07-31T11:28:27.189Z,73.13
2018-07-31T11:30:27.514Z,73.13
2018-07-31T11:31:37.765Z,39.38
2018-07-31T11:32:38.793Z,73.13
2018-07-31T11:33:42.796Z,84.38
2018-07-31T11:36:01.453Z,73.13
2018-07-31T11:39:08.439Z,84.38
2018-07-31T11:41:27.091Z,78.75
2018-07-31T11:43:38.580Z,78.75
2018-07-31T11:44:37.874Z,73.13
2018-07-31T11:45:42.795Z,73.13
2018-07-31T11:46:54.173Z,67.50
2018-07-31T11:47:46.198Z,67.50
2018-07-31T11:49:07.414Z,67.50
2018-07-31T11:50:04.760Z,61.88
2018-07-31T11:51:21.753Z,73.13
2018-07-31T11:52:26.372Z,73.13
2018-07-31T11:53:36.107Z,73.13
2018-07-31T11:54:29.154Z,73.13
2018-07-31T11:55:29.985Z,73.13
2018-07-31T11:57:43.723Z,73.13
2018-07-31T11:58:45.982Z,73.13
2018-07-31T11:59:58.485Z,73.13
2018-07-31T12:00:50.301Z,73.13
2018-07-31T12:02:08.440Z,73.13
2018-07-31T12:03:12.541Z,73.13
2018-07-31T12:04:19.067Z,78.75
2018-07-31T12:06:21.172Z,78.75
2018-07-31T12:07:33.057Z,33.75
2018-07-31T12:08:43.412Z,39.38
2018-07-31T12:09:41.481Z,56.25
2018-07-31T12:10:49.982Z,45.00
2018-07-31T12:11:57.162Z,73.13
2018-07-31T12:14:08.033Z,45.00
2018-07-31T12:15:24.425Z,28.13
2018-07-31T12:16:14.703Z,33.75
2018-07-31T12:17:31.200Z,28.13
2018-07-31T12:18:39.913Z,61.88
2018-07-31T12:19:33.672Z,61.88
2018-07-31T12:20:49.282Z,61.88
2018-07-31T12:22:46.701Z,56.25
2018-07-31T12:24:57.062Z,50.63
2018-07-31T12:26:19.297Z,50.63
2018-07-31T12:27:12.953Z,56.25
2018-07-31T12:28:14.191Z,56.25
2018-07-31T12:29:35.601Z,56.25
2018-07-31T12:30:33.769Z,56.25
2018-07-31T12:32:43.260Z,56.25
2018-07-31T12:33:54.987Z,56.25
2018-07-31T12:34:54.589Z,56.25
2018-07-31T12:35:59.718Z,56.25
2018-07-31T12:37:10.473Z,56.25
2018-07-31T12:38:00.959Z,56.25
2018-07-31T12:40:17.053Z,50.63
2018-07-31T12:42:21.172Z,50.63
2018-07-31T12:43:44.539Z,50.63
2018-07-31T12:46:02.155Z,56.25
2018-07-31T12:46:53.768Z,50.63
2018-07-31T12:47:58.592Z,50.63
2018-07-31T12:52:14.085Z,50.63
2018-07-31T12:53:40.521Z,50.63
2018-07-31T12:54:38.682Z,50.63
2018-07-31T12:55:37.051Z,56.25
2018-07-31T12:57:56.219Z,56.25
2018-07-31T12:58:53.565Z,56.25
2018-07-31T13:00:10.367Z,45.00
2018-07-31T13:01:07.610Z,39.38
2018-07-31T13:02:13.489Z,28.13
2018-07-31T13:03:08.548Z,45.00
2018-07-31T13:04:30.580Z,45.00
2018-07-31T13:05:29.455Z,45.00
2018-07-31T13:06:31.531Z,56.25
2018-07-31T13:07:36.959Z,67.50
2018-07-31T13:08:37.989Z,67.50
2018-07-31T13:09:46.191Z,61.88
2018-07-31T13:10:54.592Z,61.88
2018-07-31T13:12:09.166Z,67.50
2018-07-31T13:13:18.786Z,67.50
2018-07-31T13:15:18.385Z,61.88
2018-07-31T13:17:29.364Z,73.13
2018-07-31T13:18:33.774Z,50.63
2018-07-31T13:19:52.318Z,45.00
2018-07-31T13:20:45.054Z,61.88
2018-07-31T13:22:56.495Z,56.25
2018-07-31T13:23:55.433Z,56.25
2018-07-31T13:25:26.262Z,56.25
2018-07-31T13:26:17.969Z,56.25
2018-07-31T13:28:15.842Z,56.25
2018-07-31T13:29:31.309Z,45.00
2018-07-31T13:30:36.778Z,56.25
2018-07-31T13:31:55.801Z,56.25
2018-07-31T13:32:45.058Z,61.88
2018-07-31T13:33:57.151Z,67.50
2018-07-31T13:34:58.285Z,67.50
2018-07-31T13:36:02.830Z,61.88
2018-07-31T13:38:07.841Z,61.88
2018-07-31T13:40:21.264Z,56.25
2018-07-31T13:42:38.687Z,56.25
2018-07-31T13:44:44.131Z,56.25
2018-07-31T13:47:07.500Z,61.88
2018-07-31T13:49:11.308Z,56.25
2018-07-31T13:50:12.955Z,56.25
2018-07-31T13:53:52.816Z,56.25
2018-07-31T13:54:45.555Z,45.00
2018-07-31T13:56:49.467Z,39.38
2018-07-31T13:58:02.888Z,33.75
2018-07-31T13:58:45.386Z,39.38
2018-07-31T14:01:13.669Z,50.63
2018-07-31T14:02:11.750Z,45.00
2018-07-31T14:03:28.127Z,45.00
2018-07-31T14:04:40.222Z,45.00
2018-07-31T14:05:30.504Z,45.00
2018-07-31T14:06:35.732Z,45.00
2018-07-31T14:07:40.661Z,45.00
2018-07-31T14:08:52.442Z,45.00
2018-07-31T14:10:00.436Z,45.00
2018-07-31T14:10:45.391Z,39.38
2018-07-31T14:12:04.454Z,39.38
2018-07-31T14:13:22.384Z,39.38
2018-07-31T14:15:27.107Z,39.38
2018-07-31T14:16:27.836Z,39.38
2018-07-31T14:17:38.601Z,39.38
2018-07-31T14:18:41.779Z,39.38
2018-07-31T14:19:47.624Z,39.38
2018-07-31T14:22:04.126Z,39.38
2018-07-31T14:23:02.190Z,39.38
2018-07-31T14:23:59.128Z,39.38
2018-07-31T14:25:16.756Z,39.38
2018-07-31T14:26:12.771Z,39.38
2018-07-31T14:27:19.943Z,39.38
2018-07-31T14:28:30.707Z,39.38
2018-07-31T14:29:35.012Z,45.00
2018-07-31T14:30:41.594Z,45.00
2018-07-31T14:31:39.536Z,45.00
2018-07-31T14:34:06.835Z,39.38
2018-07-31T14:35:05.275Z,33.75
2018-07-31T14:37:05.796Z,39.38
2018-07-31T14:38:22.812Z,33.75
2018-07-31T14:39:23.538Z,33.75
2018-07-31T14:41:37.168Z,33.75
2018-07-31T14:42:45.413Z,33.75
2018-07-31T14:44:51.738Z,39.38
2018-07-31T14:46:05.157Z,39.38
2018-07-31T14:46:57.692Z,39.38
2018-07-31T14:48:04.252Z,16.88
2018-07-31T14:50:24.447Z,39.38
2018-07-31T14:51:29.575Z,33.75
2018-07-31T14:52:26.001Z,33.75
2018-07-31T14:53:36.248Z,33.75
2018-07-31T14:54:50.287Z,33.75
2018-07-31T14:55:53.777Z,33.75
2018-07-31T14:56:55.323Z,33.75
2018-07-31T14:58:09.774Z,33.75
2018-07-31T14:59:04.861Z,33.75
2018-07-31T15:01:18.090Z,33.75
2018-07-31T15:02:19.326Z,33.75
2018-07-31T15:03:29.372Z,33.75
2018-07-31T15:04:32.454Z,33.75
2018-07-31T15:05:40.755Z,33.75
2018-07-31T15:06:42.038Z,33.75
2018-07-31T15:08:53.079Z,28.13
2018-07-31T15:09:54.103Z,33.75
2018-07-31T15:11:05.720Z,28.13
2018-07-31T15:12:14.807Z,28.13
2018-07-31T15:13:08.747Z,28.13
2018-07-31T15:14:19.947Z,28.13
2018-07-31T15:16:36.449Z,28.13
2018-07-31T15:17:40.966Z,33.75
2018-07-31T15:18:45.999Z,33.75
2018-07-31T15:20:48.777Z,33.75
2018-07-31T15:22:00.159Z,33.75
2018-07-31T15:23:13.987Z,33.75
2018-07-31T15:24:10.514Z,33.75
2018-07-31T15:25:12.678Z,33.75
2018-07-31T15:26:22.823Z,33.75
2018-07-31T15:27:25.086Z,28.13
2018-07-31T15:28:36.356Z,28.13
2018-07-31T15:29:38.234Z,28.13
2018-07-31T15:30:39.345Z,28.13
2018-07-31T15:31:52.877Z,22.50
2018-07-31T15:32:58.003Z,22.50
2018-07-31T15:33:53.915Z,33.75
2018-07-31T15:35:04.372Z,61.88
2018-07-31T15:36:11.039Z,45.00
2018-07-31T15:37:28.350Z,50.63
2018-07-31T15:38:24.671Z,45.00
2018-07-31T15:39:22.223Z,28.13
2018-07-31T15:40:30.222Z,28.13
2018-07-31T15:41:40.478Z,33.75
2018-07-31T15:43:45.098Z,33.75
2018-07-31T15:44:55.352Z,28.13
2018-07-31T15:46:01.912Z,28.13
2018-07-31T15:47:06.834Z,28.13
2018-07-31T15:48:11.309Z,28.13
2018-07-31T15:49:20.477Z,28.13
2018-07-31T15:50:22.673Z,28.13
2018-07-31T15:51:29.096Z,33.75
2018-07-31T15:53:40.786Z,45.00
2018-07-31T15:54:46.128Z,45.00
2018-07-31T15:55:53.296Z,33.75
2018-07-31T15:57:08.668Z,28.13
2018-07-31T15:57:59.355Z,39.38
2018-07-31T15:59:03.254Z,56.25
2018-07-31T16:01:21.608Z,56.25
2018-07-31T16:02:24.174Z,45.00
2018-07-31T16:03:32.482Z,28.13
2018-07-31T16:04:36.275Z,28.13
2018-07-31T16:05:42.126Z,50.63
2018-07-31T16:06:52.781Z,73.13
2018-07-31T16:09:03.043Z,22.50
2018-07-31T16:10:14.109Z,22.50
2018-07-31T16:11:06.853Z,22.50
2018-07-31T16:12:12.788Z,22.50
2018-07-31T16:13:22.126Z,22.50
2018-07-31T16:14:33.911Z,22.50
2018-07-31T16:15:40.993Z,22.50
2018-07-31T16:17:45.097Z,22.50
2018-07-31T16:18:50.635Z,22.50
2018-07-31T16:19:52.490Z,22.50
2018-07-31T16:20:58.644Z,22.50
2018-07-31T16:22:57.390Z,22.50
2018-07-31T16:25:23.462Z,22.50
2018-07-31T16:27:28.494Z,22.50
2018-07-31T16:28:56.356Z,22.50
2018-07-31T16:29:41.309Z,22.50
2018-07-31T16:30:43.473Z,28.13
2018-07-31T16:31:54.645Z,22.50
2018-07-31T16:33:02.439Z,22.50
2018-07-31T16:36:23.252Z,61.88
2018-07-31T16:37:16.919Z,33.75
2018-07-31T16:39:29.829Z,22.50
2018-07-31T16:40:43.358Z,22.50
2018-07-31T16:41:34.046Z,22.50
2018-07-31T16:42:43.782Z,22.50
2018-07-31T16:44:57.622Z,22.50
2018-07-31T16:46:01.368Z,28.13
2018-07-31T16:47:11.261Z,50.63
2018-07-31T16:48:15.881Z,61.88
2018-07-31T16:49:31.654Z,90.00
2018-07-31T16:50:25.930Z,39.38
2018-07-31T16:53:45.105Z,22.50
2018-07-31T16:55:50.450Z,16.88
2018-07-31T16:57:01.534Z,16.88
2018-07-31T16:58:05.926Z,56.25
2018-07-31T17:00:09.426Z,196.88
2018-07-31T17:02:28.287Z,16.88
2018-07-31T17:04:41.311Z,16.88
2018-07-31T17:05:41.011Z,28.13
2018-07-31T17:06:54.554Z,22.50
2018-07-31T17:07:54.854Z,22.50
2018-07-31T17:08:58.241Z,22.50
2018-07-31T17:10:03.267Z,28.13
2018-07-31T17:11:10.545Z,33.75
2018-07-31T17:12:35.559Z,45.00
2018-07-31T17:14:25.426Z,28.13
2018-07-31T17:15:45.716Z,45.00
2018-07-31T17:16:37.424Z,39.38
2018-07-31T17:17:46.138Z,22.50
2018-07-31T17:18:49.424Z,22.50
2018-07-31T17:19:51.379Z,22.50
2018-07-31T17:21:00.611Z,22.50
2018-07-31T17:22:10.032Z,22.50
2018-07-31T17:23:11.269Z,16.88
2018-07-31T17:24:22.543Z,16.88
2018-07-31T17:27:49.299Z,16.88
2018-07-31T17:28:40.045Z,16.88
2018-07-31T17:30:50.660Z,16.88